Time,TemperatureF,DewpointF,PressureIn,WindDirection,WindDirectionDegrees,WindSpeedMPH,WindSpeedGustMPH,Humidity,HourlyPrecipIn,Conditions,Clouds,dailyrainin,SoftwareType,DateUTC
2013-02-05 00:01:00,43.0,23.0,-100.00,SW,220,4.0,11.0,44,-99.99,,,-99.99,,2013-02-05 08:01:00,
2013-02-05 00:21:00,45.0,23.0,-100.00,SW,234,8.0,15.0,42,-99.99,,,-99.99,,2013-02-05 08:21:00,
2013-02-05 00:31:00,45.0,23.0,-100.00,SW,234,8.0,15.0,42,-99.99,,,-99.99,,2013-02-05 08:31:00,
2013-02-05 00:41:00,45.0,20.0,-100.00,WSW,237,7.0,12.0,37,-99.99,,,-99.99,,2013-02-05 08:41:00,
2013-02-05 00:52:00,45.0,20.0,-100.00,WSW,237,7.0,12.0,37,-99.99,,,-99.99,,2013-02-05 08:52:00,
2013-02-05 01:02:00,43.0,20.0,-100.00,WSW,246,8.0,13.0,39,-99.99,,,-99.99,,2013-02-05 09:02:00,
2013-02-05 01:21:00,47.0,18.0,-100.00,WSW,254,10.0,17.0,31,-99.99,,,-99.99,,2013-02-05 09:21:00,
2013-02-05 01:31:00,47.0,18.0,-100.00,WSW,254,10.0,17.0,31,-99.99,,,-99.99,,2013-02-05 09:31:00,
2013-02-05 01:42:00,47.0,15.0,-100.00,West,261,10.0,17.0,27,-99.99,,,-99.99,,2013-02-05 09:42:00,
2013-02-05 01:52:00,47.0,15.0,-100.00,West,261,10.0,17.0,27,-99.99,,,-99.99,,2013-02-05 09:52:00,
2013-02-05 02:01:00,47.0,15.0,-100.00,WSW,258,9.0,17.0,27,-99.99,,,-99.99,,2013-02-05 10:01:00,
2013-02-05 02:21:00,43.0,19.0,-100.00,WSW,250,12.0,18.0,38,-99.99,,,-99.99,,2013-02-05 10:21:00,
2013-02-05 02:31:00,43.0,19.0,-100.00,WSW,250,12.0,18.0,38,-99.99,,,-99.99,,2013-02-05 10:31:00,
2013-02-05 03:01:00,42.0,20.0,-100.00,WSW,251,9.0,14.0,41,-99.99,,,-99.99,,2013-02-05 11:01:00,
2013-02-05 03:22:00,42.0,19.0,-100.00,WSW,256,8.0,12.0,40,-99.99,,,-99.99,,2013-02-05 11:22:00,
2013-02-05 03:32:00,42.0,19.0,-100.00,WSW,256,8.0,12.0,40,-99.99,,,-99.99,,2013-02-05 11:32:00,
2013-02-05 03:41:00,42.0,19.0,-100.00,WSW,256,8.0,12.0,40,-99.99,,,-99.99,,2013-02-05 11:41:00,
2013-02-05 04:01:00,41.0,19.0,-100.00,WSW,248,6.0,12.0,41,-99.99,,,-99.99,,2013-02-05 12:01:00,
2013-02-05 04:12:00,41.0,19.0,-100.00,WSW,248,6.0,12.0,41,-99.99,,,-99.99,,2013-02-05 12:12:00,
2013-02-05 04:21:00,41.0,20.0,-100.00,WSW,237,5.0,8.0,42,-99.99,,,-99.99,,2013-02-05 12:21:00,
2013-02-05 04:32:00,41.0,20.0,-100.00,WSW,237,5.0,8.0,42,-99.99,,,-99.99,,2013-02-05 12:32:00,
2013-02-05 04:42:00,41.0,20.0,-100.00,SW,217,4.0,9.0,43,-99.99,,,-99.99,,2013-02-05 12:42:00,
2013-02-05 04:52:00,41.0,20.0,-100.00,SW,217,4.0,9.0,43,-99.99,,,-99.99,,2013-02-05 12:52:00,
2013-02-05 05:01:00,40.0,21.0,-100.00,WSW,239,3.0,6.0,45,-99.99,,,-99.99,,2013-02-05 13:01:00,
2013-02-05 05:12:00,40.0,21.0,-100.00,WSW,239,3.0,6.0,45,-99.99,,,-99.99,,2013-02-05 13:12:00,
2013-02-05 05:21:00,39.0,20.0,-100.00,WSW,247,4.0,8.0,46,-99.99,,,-99.99,,2013-02-05 13:21:00,
2013-02-05 05:31:00,39.0,20.0,-100.00,WSW,247,4.0,8.0,46,-99.99,,,-99.99,,2013-02-05 13:31:00,
2013-02-05 05:42:00,39.0,20.0,-100.00,WSW,247,4.0,8.0,46,-99.99,,,-99.99,,2013-02-05 13:42:00,
2013-02-05 06:01:00,41.0,17.0,-100.00,WSW,254,3.0,11.0,38,-99.99,,,-99.99,,2013-02-05 14:01:00,
2013-02-05 06:12:00,41.0,17.0,-100.00,WSW,254,3.0,11.0,38,-99.99,,,-99.99,,2013-02-05 14:12:00,
2013-02-05 06:21:00,41.0,14.0,-100.00,WSW,244,5.0,10.0,32,-99.99,,,-99.99,,2013-02-05 14:21:00,
2013-02-05 06:31:00,41.0,14.0,-100.00,WSW,244,5.0,10.0,32,-99.99,,,-99.99,,2013-02-05 14:31:00,
2013-02-05 06:42:00,43.0,12.0,-100.00,WSW,256,9.0,16.0,28,-99.99,,,-99.99,,2013-02-05 14:42:00,
2013-02-05 06:52:00,43.0,12.0,-100.00,WSW,256,9.0,16.0,28,-99.99,,,-99.99,,2013-02-05 14:52:00,
2013-02-05 07:01:00,43.0,10.0,-100.00,West,272,4.0,9.0,26,-99.99,,,-99.99,,2013-02-05 15:01:00,
2013-02-05 07:11:00,43.0,10.0,-100.00,West,272,4.0,9.0,26,-99.99,,,-99.99,,2013-02-05 15:11:00,
2013-02-05 07:21:00,43.0,9.0,-100.00,WNW,292,3.0,7.0,24,-99.99,,,-99.99,,2013-02-05 15:21:00,
2013-02-05 07:32:00,43.0,9.0,-100.00,WNW,292,3.0,7.0,24,-99.99,,,-99.99,,2013-02-05 15:32:00,
2013-02-05 07:41:00,43.0,7.0,-100.00,West,263,3.0,7.0,22,-99.99,,,-99.99,,2013-02-05 15:41:00,
2013-02-05 07:52:00,43.0,7.0,-100.00,West,263,3.0,7.0,22,-99.99,,,-99.99,,2013-02-05 15:52:00,
2013-02-05 08:01:00,44.0,4.0,-100.00,WSW,247,5.0,11.0,19,-99.99,,,-99.99,,2013-02-05 16:01:00,
2013-02-05 08:11:00,43.0,6.0,-100.00,WSW,247,4.0,7.0,21,-99.99,,,-99.99,,2013-02-05 16:11:00,
2013-02-05 08:22:00,43.0,6.0,-100.00,WSW,247,4.0,7.0,21,-99.99,,,-99.99,,2013-02-05 16:22:00,
2013-02-05 08:41:00,45.0,6.0,-100.00,WSW,244,4.0,9.0,19,-99.99,,,-99.99,,2013-02-05 16:41:00,
2013-02-05 08:52:00,45.0,6.0,-100.00,WSW,244,4.0,9.0,19,-99.99,,,-99.99,,2013-02-05 16:52:00,
2013-02-05 09:01:00,47.0,3.0,-100.00,WSW,248,5.0,12.0,16,-99.99,,,-99.99,,2013-02-05 17:01:00,
2013-02-05 09:21:00,48.0,2.0,-100.00,WSW,244,6.0,13.0,15,-99.99,,,-99.99,,2013-02-05 17:21:00,
2013-02-05 09:32:00,48.0,2.0,-100.00,WSW,244,6.0,13.0,15,-99.99,,,-99.99,,2013-02-05 17:32:00,
2013-02-05 09:42:00,48.0,3.0,-100.00,SW,234,10.0,18.0,15,-99.99,,,-99.99,,2013-02-05 17:42:00,
2013-02-05 09:52:00,48.0,3.0,-100.00,SW,234,10.0,18.0,15,-99.99,,,-99.99,,2013-02-05 17:52:00,
2013-02-05 10:01:00,48.0,3.0,-100.00,SW,234,10.0,18.0,15,-99.99,,,-99.99,,2013-02-05 18:01:00,
2013-02-05 11:02:00,48.0,11.0,-100.00,SW,224,10.0,22.0,22,-99.99,,,-99.99,,2013-02-05 19:02:00,
2013-02-05 11:21:00,49.0,12.0,-100.00,WSW,239,13.0,22.0,22,-99.99,,,-99.99,,2013-02-05 19:21:00,
2013-02-05 11:31:00,49.0,12.0,-100.00,WSW,239,13.0,22.0,22,-99.99,,,-99.99,,2013-02-05 19:31:00,
2013-02-05 11:42:00,50.0,10.0,-100.00,WSW,241,11.0,24.0,20,-99.99,,,-99.99,,2013-02-05 19:42:00,
2013-02-05 11:52:00,50.0,10.0,-100.00,WSW,241,11.0,24.0,20,-99.99,,,-99.99,,2013-02-05 19:52:00,
2013-02-05 12:01:00,51.0,10.0,-100.00,WSW,246,12.0,24.0,19,-99.99,,,-99.99,,2013-02-05 20:01:00,
2013-02-05 12:11:00,51.0,10.0,-100.00,SW,223,13.0,25.0,19,-99.99,,,-99.99,,2013-02-05 20:11:00,
2013-02-05 12:21:00,51.0,10.0,-100.00,SW,223,13.0,25.0,19,-99.99,,,-99.99,,2013-02-05 20:21:00,
2013-02-05 12:32:00,51.0,10.0,-100.00,SW,223,13.0,25.0,19,-99.99,,,-99.99,,2013-02-05 20:32:00,
2013-02-05 12:41:00,51.0,10.0,-100.00,SW,223,13.0,25.0,19,-99.99,,,-99.99,,2013-02-05 20:41:00,
2013-02-05 13:01:00,51.0,9.0,-100.00,SSW,209,13.0,25.0,18,-99.99,,,-99.99,,2013-02-05 21:01:00,
2013-02-05 13:11:00,51.0,9.0,-100.00,SSW,209,13.0,25.0,18,-99.99,,,-99.99,,2013-02-05 21:11:00,
2013-02-05 13:21:00,51.0,9.0,-100.00,SSW,209,13.0,25.0,18,-99.99,,,-99.99,,2013-02-05 21:21:00,
2013-02-05 13:42:00,50.0,16.0,-100.00,WSW,244,13.0,24.0,25,-99.99,,,-99.99,,2013-02-05 21:42:00,
2013-02-05 13:52:00,50.0,16.0,-100.00,WSW,244,13.0,24.0,25,-99.99,,,-99.99,,2013-02-05 21:52:00,
2013-02-05 14:01:00,50.0,16.0,-100.00,WSW,244,13.0,24.0,25,-99.99,,,-99.99,,2013-02-05 22:01:00,
2013-02-05 14:42:00,48.0,16.0,-100.00,WSW,240,12.0,23.0,28,-99.99,,,-99.99,,2013-02-05 22:42:00,
2013-02-05 14:52:00,48.0,16.0,-100.00,WSW,240,12.0,23.0,28,-99.99,,,-99.99,,2013-02-05 22:52:00,
2013-02-05 15:01:00,47.0,15.0,-100.00,SW,215,11.0,21.0,27,-99.99,,,-99.99,,2013-02-05 23:01:00,
2013-02-05 15:11:00,47.0,15.0,-100.00,SW,215,11.0,21.0,27,-99.99,,,-99.99,,2013-02-05 23:11:00,
2013-02-05 15:21:00,47.0,14.0,-100.00,SW,226,11.0,22.0,26,-99.99,,,-99.99,,2013-02-05 23:21:00,
2013-02-05 15:32:00,47.0,14.0,-100.00,SW,226,11.0,22.0,26,-99.99,,,-99.99,,2013-02-05 23:32:00,
2013-02-05 15:41:00,47.0,14.0,-100.00,SW,223,12.0,22.0,26,-99.99,,,-99.99,,2013-02-05 23:41:00,
2013-02-05 15:52:00,47.0,14.0,-100.00,SW,223,12.0,22.0,26,-99.99,,,-99.99,,2013-02-05 23:52:00,
2013-02-05 16:01:00,48.0,14.0,-100.00,SW,220,12.0,22.0,25,-99.99,,,-99.99,,2013-02-06 00:01:00,
2013-02-05 16:11:00,48.0,14.0,-100.00,SW,220,12.0,22.0,25,-99.99,,,-99.99,,2013-02-06 00:11:00,
2013-02-05 16:21:00,48.0,14.0,-100.00,SW,220,12.0,22.0,25,-99.99,,,-99.99,,2013-02-06 00:21:00,
2013-02-05 16:42:00,47.0,14.0,-100.00,SW,219,8.0,18.0,26,-99.99,,,-99.99,,2013-02-06 00:42:00,
2013-02-05 16:52:00,47.0,14.0,-100.00,SW,219,8.0,18.0,26,-99.99,,,-99.99,,2013-02-06 00:52:00,
2013-02-05 17:01:00,47.0,12.0,-100.00,SW,219,10.0,19.0,24,-99.99,,,-99.99,,2013-02-06 01:01:00,
2013-02-05 17:11:00,47.0,12.0,-100.00,SW,219,10.0,19.0,24,-99.99,,,-99.99,,2013-02-06 01:11:00,
2013-02-05 17:21:00,46.0,12.0,-100.00,SW,223,11.0,20.0,25,-99.99,,,-99.99,,2013-02-06 01:21:00,
2013-02-05 17:32:00,46.0,12.0,-100.00,SW,223,11.0,20.0,25,-99.99,,,-99.99,,2013-02-06 01:32:00,
2013-02-05 17:42:00,44.0,15.0,-100.00,WSW,246,10.0,16.0,30,-99.99,,,-99.99,,2013-02-06 01:42:00,
2013-02-05 17:53:00,44.0,15.0,-100.00,WSW,246,10.0,16.0,30,-99.99,,,-99.99,,2013-02-06 01:53:00,
2013-02-05 18:01:00,44.0,15.0,-100.00,WSW,246,10.0,16.0,30,-99.99,,,-99.99,,2013-02-06 02:01:00,
2013-02-05 18:22:00,42.0,20.0,-100.00,SW,233,13.0,24.0,41,-99.99,,,-99.99,,2013-02-06 02:22:00,
2013-02-05 18:32:00,42.0,20.0,-100.00,SW,233,13.0,24.0,41,-99.99,,,-99.99,,2013-02-06 02:32:00,
2013-02-05 18:42:00,41.0,21.0,-100.00,WSW,240,13.0,29.0,44,-99.99,,,-99.99,,2013-02-06 02:42:00,
2013-02-05 18:52:00,41.0,21.0,-100.00,WSW,240,13.0,29.0,44,-99.99,,,-99.99,,2013-02-06 02:52:00,
2013-02-05 19:02:00,41.0,20.0,-100.00,WSW,241,12.0,24.0,43,-99.99,,,-99.99,,2013-02-06 03:02:00,
2013-02-05 19:12:00,41.0,20.0,-100.00,WSW,241,12.0,24.0,43,-99.99,,,-99.99,,2013-02-06 03:12:00,
2013-02-05 19:21:00,40.0,22.0,-100.00,WSW,239,12.0,22.0,48,-99.99,,,-99.99,,2013-02-06 03:21:00,
2013-02-05 19:32:00,40.0,22.0,-100.00,WSW,239,12.0,22.0,48,-99.99,,,-99.99,,2013-02-06 03:32:00,
2013-02-05 19:42:00,39.0,22.0,-100.00,WSW,239,12.0,26.0,50,-99.99,,,-99.99,,2013-02-06 03:42:00,
2013-02-05 19:53:00,39.0,22.0,-100.00,WSW,239,12.0,26.0,50,-99.99,,,-99.99,,2013-02-06 03:53:00,
2013-02-05 20:01:00,38.0,22.0,-100.00,WSW,237,11.0,23.0,51,-99.99,,,-99.99,,2013-02-06 04:01:00,
2013-02-05 20:11:00,38.0,22.0,-100.00,WSW,237,11.0,23.0,51,-99.99,,,-99.99,,2013-02-06 04:11:00,
2013-02-05 20:21:00,39.0,20.0,-100.00,WSW,241,10.0,21.0,47,-99.99,,,-99.99,,2013-02-06 04:21:00,
2013-02-05 20:31:00,39.0,20.0,-100.00,WSW,241,10.0,21.0,47,-99.99,,,-99.99,,2013-02-06 04:31:00,
2013-02-05 20:41:00,39.0,20.0,-100.00,WSW,241,10.0,21.0,47,-99.99,,,-99.99,,2013-02-06 04:41:00,
2013-02-05 21:01:00,38.0,21.0,-100.00,SW,232,5.0,12.0,50,-99.99,,,-99.99,,2013-02-06 05:01:00,
2013-02-05 21:12:00,38.0,21.0,-100.00,SW,232,5.0,12.0,50,-99.99,,,-99.99,,2013-02-06 05:12:00,
2013-02-05 21:22:00,38.0,20.0,-100.00,WSW,240,7.0,15.0,48,-99.99,,,-99.99,,2013-02-06 05:22:00,
2013-02-05 21:31:00,38.0,20.0,-100.00,WSW,240,7.0,15.0,48,-99.99,,,-99.99,,2013-02-06 05:31:00,
2013-02-05 21:41:00,38.0,17.0,-100.00,WSW,246,12.0,23.0,41,-99.99,,,-99.99,,2013-02-06 05:41:00,
2013-02-05 21:53:00,38.0,17.0,-100.00,WSW,246,12.0,23.0,41,-99.99,,,-99.99,,2013-02-06 05:53:00,
2013-02-05 22:01:00,38.0,8.0,-100.00,WSW,256,13.0,23.0,29,-99.99,,,-99.99,,2013-02-06 06:01:00,
2013-02-05 22:11:00,38.0,8.0,-100.00,WSW,256,13.0,23.0,29,-99.99,,,-99.99,,2013-02-06 06:11:00,
2013-02-05 22:21:00,37.0,5.0,-100.00,WNW,287,7.0,18.0,26,-99.99,,,-99.99,,2013-02-06 06:21:00,
2013-02-05 22:31:00,37.0,5.0,-100.00,WNW,287,7.0,18.0,26,-99.99,,,-99.99,,2013-02-06 06:31:00,
2013-02-05 22:42:00,37.0,5.0,-100.00,WSW,253,11.0,21.0,25,-99.99,,,-99.99,,2013-02-06 06:42:00,
2013-02-05 22:52:00,37.0,5.0,-100.00,WSW,253,11.0,21.0,25,-99.99,,,-99.99,,2013-02-06 06:52:00,
2013-02-05 23:01:00,36.0,7.0,-100.00,WSW,254,9.0,26.0,29,-99.99,,,-99.99,,2013-02-06 07:01:00,
2013-02-05 23:11:00,36.0,7.0,-100.00,WSW,254,9.0,26.0,29,-99.99,,,-99.99,,2013-02-06 07:11:00,
2013-02-05 23:21:00,36.0,7.0,-100.00,WSW,248,8.0,22.0,28,-99.99,,,-99.99,,2013-02-06 07:21:00,
2013-02-05 23:32:00,36.0,7.0,-100.00,WSW,248,8.0,22.0,28,-99.99,,,-99.99,,2013-02-06 07:32:00,
2013-02-05 23:41:00,36.0,9.0,-100.00,WSW,256,11.0,24.0,31,-99.99,,,-99.99,,2013-02-06 07:41:00,
2013-02-05 23:52:00,36.0,9.0,-100.00,WSW,256,11.0,24.0,31,-99.99,,,-99.99,,2013-02-06 07:52:00,